Time;durP1;ratioP1;P1;durP2;ratioP2;P2;SDS_P1;SDS_P2;PMS_P1;PMS_P2;Temp;Humidity;BMP_temperature;BMP_pressure;BME280_temperature;BME280_humidity;BME280_pressure;Samples;Min_cycle;Max_cycle;Signal;HPM_P1;HPM_P2
2022/06/29 00:00:50;;;;;;;14.20;12.70;;;;;;;24.92;69.77;100625.27;1701365;83;21011;-70
2022/06/29 00:03:16;;;;;;;14.10;12.70;;;;;;;24.90;69.93;100623.45;1710247;83;21086;-70
2022/06/29 00:05:43;;;;;;;14.30;12.90;;;;;;;24.89;70.02;100625.19;1708031;82;21101;-70
2022/06/29 00:08:10;;;;;;;14.60;13.10;;;;;;;24.88;70.16;100627.70;1699713;82;22160;-71
2022/06/29 00:10:37;;;;;;;14.73;13.30;;;;;;;24.85;70.27;100627.83;1699600;82;21024;-71
2022/06/29 00:13:03;;;;;;;14.30;12.80;;;;;;;24.81;70.37;100626.95;1699803;82;21552;-71
2022/06/29 00:15:33;;;;;;;14.10;12.60;;;;;;;24.80;70.48;100623.98;1700593;82;22531;-71
2022/06/29 00:18:00;;;;;;;13.97;12.67;;;;;;;24.79;70.45;100626.50;1700768;82;21026;-71
2022/06/29 00:20:26;;;;;;;13.00;11.70;;;;;;;24.78;70.55;100620.83;1699483;82;21568;-71
2022/06/29 00:22:53;;;;;;;13.10;11.90;;;;;;;24.78;70.56;100620.83;1701005;82;21527;-71
2022/06/29 00:25:20;;;;;;;14.63;13.27;;;;;;;24.76;70.57;100629.94;1700019;82;21098;-71
2022/06/29 00:27:47;;;;;;;14.27;12.87;;;;;;;24.66;70.85;100624.41;1699236;82;21454;-71
2022/06/29 00:30:13;;;;;;;14.17;12.40;;;;;;;24.63;71.16;100625.69;1699936;82;21560;-71
2022/06/29 00:32:40;;;;;;;14.70;12.83;;;;;;;24.63;71.37;100629.21;1698979;82;21472;-72
2022/06/29 00:35:08;;;;;;;14.00;12.70;;;;;;;24.64;71.44;100640.34;1700979;82;21078;-71
2022/06/29 00:37:36;;;;;;;13.90;12.47;;;;;;;24.63;71.59;100646.96;1700179;82;21102;-71
2022/06/29 00:40:05;;;;;;;13.97;12.63;;;;;;;24.50;71.90;100665.34;1699213;82;21569;-71
2022/06/29 00:42:31;;;;;;;13.13;11.93;;;;;;;24.24;72.02;100664.39;1700072;82;21179;-71
2022/06/29 00:44:58;;;;;;;13.10;11.80;;;;;;;24.02;72.14;100656.18;1698979;82;21678;-71
2022/06/29 00:47:25;;;;;;;13.20;12.00;;;;;;;23.85;72.26;100659.16;1700475;82;21066;-70
2022/06/29 00:49:52;;;;;;;13.70;12.40;;;;;;;23.79;72.49;100659.98;1699520;82;21084;-70
2022/06/29 00:52:22;;;;;;;13.33;12.07;;;;;;;23.79;72.54;100655.89;1700636;82;20995;-70
2022/06/29 00:54:59;;;;;;;12.88;11.68;;;;;;;23.79;72.56;100660.52;1700728;82;21119;-70
2022/06/29 00:57:27;;;;;;;13.10;11.83;;;;;;;23.81;72.52;100655.53;1706982;82;21859;-70
2022/06/29 00:59:58;;;;;;;12.90;11.70;;;;;;;23.80;72.52;100660.20;1707880;82;20968;-71
2022/06/29 01:02:34;;;;;;;13.68;12.45;;;;;;;23.78;72.62;100664.41;1699476;82;26536;-71
2022/06/29 01:05:04;;;;;;;12.93;11.73;;;;;;;23.68;72.83;100656.12;1701509;82;21556;-71
2022/06/29 01:07:33;;;;;;;13.43;12.03;;;;;;;23.67;72.92;100656.44;1700337;82;21094;-70
2022/06/29 01:10:00;;;;;;;12.67;11.57;;;;;;;23.66;72.98;100657.02;1698934;82;21895;-71
2022/06/29 01:12:27;;;;;;;13.60;12.30;;;;;;;23.67;72.84;100660.53;1699120;82;21547;-70
2022/06/29 01:14:54;;;;;;;13.00;11.80;;;;;;;23.72;72.56;100654.86;1700261;82;21030;-70
2022/06/29 01:17:23;;;;;;;13.00;11.33;;;;;;;23.73;72.28;100653.17;1701057;82;21556;-70
2022/06/29 01:19:50;;;;;;;12.67;11.67;;;;;;;23.75;71.92;100659.05;1697987;82;21017;-72
2022/06/29 01:22:22;;;;;;;12.00;10.90;;;;;;;23.81;71.61;100654.96;1699939;82;21232;-71
2022/06/29 01:24:49;;;;;;;12.63;11.43;;;;;;;23.85;71.19;100650.97;1701282;82;20974;-71
2022/06/29 01:27:17;;;;;;;12.13;10.97;;;;;;;23.88;70.96;100661.20;1699925;82;21089;-70
2022/06/29 01:29:46;;;;;;;12.40;11.13;;;;;;;23.92;70.51;100654.48;1700271;82;21049;-70
2022/06/29 01:32:12;;;;;;;11.73;10.60;;;;;;;23.96;70.33;100654.83;1700514;82;21053;-70
2022/06/29 01:34:39;;;;;;;12.97;11.67;;;;;;;23.93;70.39;100667.80;1699245;82;21650;-70
2022/06/29 01:37:06;;;;;;;13.70;12.40;;;;;;;23.89;70.51;100672.35;1700159;82;21485;-70
2022/06/29 01:39:32;;;;;;;13.37;12.23;;;;;;;23.83;70.51;100678.61;1701199;84;21589;-69
2022/06/29 01:41:59;;;;;;;12.97;11.90;;;;;;;23.77;70.57;100673.73;1707069;83;21034;-70
2022/06/29 01:44:26;;;;;;;13.93;12.63;;;;;;;23.73;70.54;100674.98;1709748;83;21560;-70
2022/06/29 01:46:53;;;;;;;14.47;13.17;;;;;;;23.75;70.61;100674.06;1710793;82;21712;-71
2022/06/29 01:49:22;;;;;;;13.87;12.60;;;;;;;23.75;70.70;100679.52;1706587;83;21017;-70
2022/06/29 01:51:49;;;;;;;14.37;12.97;;;;;;;23.74;70.55;100679.87;1711290;83;20988;-70
2022/06/29 01:54:16;;;;;;;14.57;13.17;;;;;;;23.68;70.59;100685.30;1711357;83;21058;-70
2022/06/29 01:56:42;;;;;;;13.37;11.93;;;;;;;23.59;70.63;100679.95;1710357;82;21084;-70
2022/06/29 01:59:11;;;;;;;14.27;12.87;;;;;;;23.56;70.40;100683.36;1708727;83;21248;-70
2022/06/29 02:01:39;;;;;;;13.87;12.43;;;;;;;23.55;70.40;100677.11;1711651;83;20956;-71
2022/06/29 02:04:05;;;;;;;13.77;12.43;;;;;;;23.54;70.36;100673.38;1711417;83;22114;-70
2022/06/29 02:06:32;;;;;;;13.20;12.00;;;;;;;23.55;70.17;100672.23;1718193;82;21487;-70
2022/06/29 02:08:59;;;;;;;14.00;11.97;;;;;;;23.60;69.74;100675.53;1711481;83;21000;-70
2022/06/29 02:11:27;;;;;;;13.47;12.07;;;;;;;23.64;69.42;100677.80;1711629;83;22018;-70
2022/06/29 02:13:54;;;;;;;13.40;12.07;;;;;;;23.68;69.28;100673.84;1711449;83;21566;-70
2022/06/29 02:16:21;;;;;;;13.27;11.97;;;;;;;23.75;69.35;100683.60;1711332;82;21131;-70
2022/06/29 02:18:47;;;;;;;13.17;11.97;;;;;;;23.83;69.29;100679.97;1709836;82;21021;-70
2022/06/29 02:21:14;;;;;;;12.47;11.37;;;;;;;23.90;69.21;100682.12;1699266;82;21093;-70
2022/06/29 02:23:40;;;;;;;13.00;11.80;;;;;;;23.97;69.02;100685.63;1700866;82;21163;-70
2022/06/29 02:26:07;;;;;;;12.90;11.70;;;;;;;24.03;68.80;100686.98;1698661;82;21061;-71
2022/06/29 02:28:33;;;;;;;13.47;12.27;;;;;;;24.07;68.73;100692.76;1700288;82;21042;-70
2022/06/29 02:36:30;;;;;;;13.43;12.23;;;;;;;24.04;68.41;100702.20;1700244;82;21862;-70
2022/06/29 02:38:56;;;;;;;13.20;11.90;;;;;;;24.00;68.39;100704.04;1700807;82;21074;-71
2022/06/29 02:41:23;;;;;;;14.37;12.63;;;;;;;23.99;68.31;100701.89;1699215;82;21043;-70
2022/06/29 02:43:49;;;;;;;13.73;12.53;;;;;;;23.97;67.99;100698.70;1700729;82;21106;-71
2022/06/29 02:46:15;;;;;;;13.93;12.63;;;;;;;23.94;67.78;100701.31;1711665;82;21573;-70
2022/06/29 02:48:42;;;;;;;13.67;12.37;;;;;;;23.94;67.65;100708.93;1705758;84;21494;-71
2022/06/29 02:51:08;;;;;;;13.70;12.30;;;;;;;23.97;67.55;100717.79;1703336;82;20979;-71
2022/06/29 02:53:35;;;;;;;13.67;12.17;;;;;;;24.02;67.60;100718.94;1710529;83;21031;-71
2022/06/29 02:56:01;;;;;;;12.93;11.70;;;;;;;24.08;67.60;100718.11;1708287;82;21050;-70
2022/06/29 02:58:31;;;;;;;13.83;12.43;;;;;;;24.11;67.47;100720.94;1700766;82;21192;-71
2022/06/29 03:00:57;;;;;;;14.20;12.80;;;;;;;24.14;67.53;100723.55;1701286;84;22292;-71
2022/06/29 03:03:25;;;;;;;13.87;12.50;;;;;;;24.15;67.77;100728.44;1701449;82;21049;-70
2022/06/29 03:05:52;;;;;;;15.80;12.83;;;;;;;24.18;68.00;100724.45;1700673;82;21073;-70
2022/06/29 03:08:18;;;;;;;13.77;12.53;;;;;;;24.21;67.92;100725.13;1699524;81;21069;-70
2022/06/29 03:10:45;;;;;;;14.23;12.83;;;;;;;24.30;68.00;100720.33;1700324;82;21113;-71
2022/06/29 03:13:11;;;;;;;15.53;13.47;;;;;;;24.39;68.04;100724.87;1701015;82;21100;-71
2022/06/29 03:15:38;;;;;;;13.53;12.33;;;;;;;24.46;68.09;100721.80;1699130;82;21118;-71
2022/06/29 03:18:06;;;;;;;15.30;13.70;;;;;;;24.56;68.00;100719.14;1700878;82;21239;-71
2022/06/29 03:20:33;;;;;;;14.70;13.30;;;;;;;24.65;67.92;100723.10;1704586;83;21487;-72
2022/06/29 03:23:00;;;;;;;14.17;12.87;;;;;;;24.74;67.78;100719.05;1706182;82;21542;-72
2022/06/29 03:25:27;;;;;;;14.63;13.23;;;;;;;24.86;67.65;100718.78;1705844;82;21853;-71
2022/06/29 03:27:53;;;;;;;14.13;12.87;;;;;;;24.96;67.37;100710.06;1699366;82;21495;-71
2022/06/29 03:30:19;;;;;;;15.30;13.53;;;;;;;25.10;67.03;100711.00;1699281;82;21127;-71
2022/06/29 03:32:46;;;;;;;15.40;14.10;;;;;;;25.23;66.79;100712.53;1699688;82;20990;-70
2022/06/29 03:35:12;;;;;;;15.30;13.90;;;;;;;25.33;66.54;100709.27;1699492;82;21108;-71
2022/06/29 03:37:40;;;;;;;14.73;13.20;;;;;;;25.44;66.29;100703.50;1699809;82;21337;-71
2022/06/29 03:40:08;;;;;;;14.13;12.77;;;;;;;25.53;65.83;100703.30;1702155;82;21061;-71
2022/06/29 03:42:35;;;;;;;13.57;12.40;;;;;;;25.62;65.33;100705.86;1700822;83;20982;-71
2022/06/29 03:45:01;;;;;;;14.70;13.30;;;;;;;25.71;65.01;100698.27;1704905;82;21098;-71
2022/06/29 03:47:29;;;;;;;14.73;13.43;;;;;;;25.79;64.60;100705.47;1737476;82;21062;-71
2022/06/29 03:49:55;;;;;;;14.73;13.43;;;;;;;25.85;64.11;100706.81;1742755;82;21107;-71
2022/06/29 03:52:22;;;;;;;14.03;12.83;;;;;;;25.94;63.46;100714.25;1738120;82;21176;-70
2022/06/29 03:54:49;;;;;;;14.60;13.30;;;;;;;26.04;63.05;100714.85;1714525;82;21107;-71
2022/06/29 03:57:15;;;;;;;13.77;12.40;;;;;;;26.16;62.85;100710.63;1739545;80;20991;-71
2022/06/29 03:59:41;;;;;;;13.03;11.90;;;;;;;26.28;62.61;100704.99;1742900;82;20944;-71
2022/06/29 04:02:08;;;;;;;12.70;11.53;;;;;;;26.39;62.11;100699.17;1737897;81;21294;-71
2022/06/29 04:04:36;;;;;;;13.40;12.17;;;;;;;26.53;61.42;100700.64;1711644;83;21130;-71
2022/06/29 04:07:04;;;;;;;12.77;11.57;;;;;;;26.67;61.07;100698.16;1744177;80;21067;-71
2022/06/29 04:09:30;;;;;;;12.93;11.73;;;;;;;26.80;60.34;100698.79;1742839;82;21027;-70
2022/06/29 04:11:57;;;;;;;13.50;12.30;;;;;;;26.89;59.34;100698.77;1737800;82;20999;-71
2022/06/29 04:14:26;;;;;;;13.07;11.97;;;;;;;26.99;59.07;100700.12;1713935;82;22059;-71
2022/06/29 04:17:02;;;;;;;12.03;10.93;;;;;;;27.11;59.12;100696.39;1714474;81;21071;-71
2022/06/29 04:19:28;;;;;;;10.90;9.97;;;;;;;27.19;57.90;100692.66;1709449;82;21517;-71
2022/06/29 04:21:57;;;;;;;10.30;9.30;;;;;;;27.24;56.39;100693.70;1672591;83;21553;-71
2022/06/29 04:24:23;;;;;;;9.57;8.67;;;;;;;27.21;55.33;100687.58;1735850;81;21435;-71
2022/06/29 04:26:50;;;;;;;8.83;8.03;;;;;;;27.16;54.67;100687.11;1708540;82;22226;-72
2022/06/29 04:29:17;;;;;;;9.67;8.67;;;;;;;27.11;53.98;100679.38;1762886;81;20983;-71
2022/06/29 04:31:43;;;;;;;9.53;8.50;;;;;;;27.11;53.84;100684.87;1756944;80;21000;-70
2022/06/29 04:34:11;;;;;;;9.97;8.97;;;;;;;27.13;53.51;100688.63;1742957;80;20991;-71
2022/06/29 04:36:38;;;;;;;9.67;8.60;;;;;;;27.19;53.91;100692.66;1768423;81;21486;-71
2022/06/29 04:39:05;;;;;;;9.33;8.43;;;;;;;27.29;54.00;100697.52;1733579;80;21131;-71
2022/06/29 04:41:33;;;;;;;9.77;8.77;;;;;;;27.40;53.17;100698.27;1707769;81;20983;-72
2022/06/29 04:43:59;;;;;;;8.50;7.80;;;;;;;27.42;52.31;100697.33;1709769;82;21157;-71
2022/06/29 04:46:25;;;;;;;9.30;8.47;;;;;;;27.48;52.23;100689.00;1707455;82;21007;-71
2022/06/29 04:49:00;;;;;;;9.43;8.57;;;;;;;27.49;51.51;100683.13;1769281;81;21066;-70
2022/06/29 04:51:29;;;;;;;9.57;8.67;;;;;;;27.50;51.79;100688.82;1724437;81;21823;-71
2022/06/29 04:53:56;;;;;;;9.77;8.87;;;;;;;27.57;51.63;100683.47;1699851;81;21276;-70
2022/06/29 04:56:26;;;;;;;9.73;8.83;;;;;;;27.69;52.04;100680.28;1699447;82;21081;-71
2022/06/29 04:58:53;;;;;;;9.78;8.88;;;;;;;27.86;52.29;100683.09;1703245;82;20983;-71
2022/06/29 05:01:23;;;;;;;9.40;8.50;;;;;;;27.99;51.91;100684.45;1709860;83;21086;-72
2022/06/29 05:03:50;;;;;;;9.17;8.27;;;;;;;28.12;51.19;100691.88;1708582;83;21758;-72
2022/06/29 05:06:17;;;;;;;9.27;8.47;;;;;;;28.21;50.96;100688.27;1707418;82;21026;-71
2022/06/29 05:08:44;;;;;;;9.27;8.37;;;;;;;28.33;51.09;100688.59;1708859;82;21115;-72
2022/06/29 05:11:14;;;;;;;9.83;9.00;;;;;;;28.43;50.75;100686.02;1761017;80;21086;-71
2022/06/29 05:13:41;;;;;;;9.40;8.50;;;;;;;28.54;50.78;100688.09;1773444;80;21007;-71
2022/06/29 05:16:09;;;;;;;9.93;9.13;;;;;;;28.65;50.54;100679.36;1769341;81;21209;-70
2022/06/29 05:18:41;;;;;;;9.93;8.93;;;;;;;28.73;50.74;100683.78;1742519;81;21652;-71
2022/06/29 05:21:06;;;;;;;9.60;8.80;;;;;;;28.82;50.42;100693.07;1706550;83;21082;-71
2022/06/29 05:23:33;;;;;;;9.80;9.00;;;;;;;28.87;50.82;100698.23;1718407;82;21039;-71
2022/06/29 05:26:01;;;;;;;9.20;8.30;;;;;;;28.88;49.71;100690.19;1718723;82;21442;-72
2022/06/29 05:28:28;;;;;;;11.80;8.83;;;;;;;28.93;49.93;100687.89;1718726;83;21820;-71
2022/06/29 05:30:54;;;;;;;9.83;8.93;;;;;;;28.98;49.49;100687.53;1718462;82;21022;-72
2022/06/29 05:33:21;;;;;;;9.50;8.67;;;;;;;29.04;48.80;100684.47;1713489;82;21047;-71
2022/06/29 05:35:48;;;;;;;9.47;8.67;;;;;;;29.04;48.85;100689.38;1711473;83;21477;-72
2022/06/29 05:38:15;;;;;;;9.43;8.53;;;;;;;29.10;48.94;100685.13;1757667;80;21106;-71
2022/06/29 05:40:43;;;;;;;10.13;9.23;;;;;;;29.17;48.58;100692.05;1740307;82;21163;-71
2022/06/29 05:43:10;;;;;;;9.43;8.60;;;;;;;29.17;48.33;100690.67;1705438;82;21078;-71
2022/06/29 05:45:37;;;;;;;10.03;9.13;;;;;;;29.19;49.14;100686.97;1728079;81;21119;-71
2022/06/29 05:48:05;;;;;;;10.90;9.10;;;;;;;29.26;49.31;100685.45;1699446;82;21054;-71
2022/06/29 05:50:32;;;;;;;9.50;8.60;;;;;;;29.29;49.53;100679.19;1704789;81;21022;-72
2022/06/29 05:53:00;;;;;;;9.87;8.97;;;;;;;29.38;49.84;100678.25;1712186;83;21239;-72
2022/06/29 05:55:27;;;;;;;10.40;9.40;;;;;;;29.47;49.60;100684.81;1711417;82;21491;-70
2022/06/29 05:57:54;;;;;;;10.10;8.93;;;;;;;29.52;49.50;100683.09;1700388;82;21678;-70
2022/06/29 06:00:20;;;;;;;10.37;9.47;;;;;;;29.47;49.58;100682.84;1699418;82;21074;-70
2022/06/29 06:02:47;;;;;;;9.83;8.83;;;;;;;29.45;48.81;100685.98;1697824;82;21117;-72
2022/06/29 06:05:14;;;;;;;9.53;8.63;;;;;;;29.51;48.87;100684.23;1700605;82;21151;-72
2022/06/29 06:07:40;;;;;;;9.33;8.53;;;;;;;29.63;49.72;100682.59;1699775;82;20959;-73
2022/06/29 06:10:08;;;;;;;9.83;8.57;;;;;;;29.71;47.80;100679.28;1701232;82;21081;-71
2022/06/29 06:12:34;;;;;;;9.83;8.83;;;;;;;29.73;48.43;100681.86;1699410;82;21152;-72
2022/06/29 06:15:02;;;;;;;9.40;8.50;;;;;;;29.72;47.56;100678.13;1697268;82;21097;-73
2022/06/29 06:17:29;;;;;;;9.60;8.80;;;;;;;29.69;48.02;100687.94;1708319;82;21534;-74
2022/06/29 06:19:58;;;;;;;9.30;8.40;;;;;;;29.69;47.71;100681.05;1701564;82;21045;-72
2022/06/29 06:22:26;;;;;;;10.10;9.03;;;;;;;29.76;47.45;100683.84;1699412;82;21046;-70
2022/06/29 06:24:52;;;;;;;10.00;9.10;;;;;;;29.85;47.59;100682.13;1699277;82;21035;-71
2022/06/29 06:27:20;;;;;;;9.30;8.43;;;;;;;29.92;47.36;100676.66;1701064;81;21102;-72
2022/06/29 06:29:48;;;;;;;9.23;8.33;;;;;;;29.95;46.94;100685.53;1711586;83;21109;-72
2022/06/29 06:32:15;;;;;;;10.17;9.17;;;;;;;30.05;47.28;100676.52;1711953;83;21585;-72
2022/06/29 06:34:41;;;;;;;9.97;9.07;;;;;;;30.14;47.21;100674.20;1706863;82;21088;-71
2022/06/29 06:37:09;;;;;;;9.23;8.43;;;;;;;30.26;46.82;100673.67;1711776;83;20999;-71
2022/06/29 06:39:36;;;;;;;9.63;8.83;;;;;;;30.35;46.79;100674.10;1709872;82;20967;-71
2022/06/29 06:42:04;;;;;;;9.70;8.90;;;;;;;30.44;46.50;100669.02;1699819;82;21210;-73
2022/06/29 06:44:32;;;;;;;9.83;8.83;;;;;;;30.52;46.21;100671.97;1700479;82;22145;-72
2022/06/29 06:46:59;;;;;;;9.63;8.80;;;;;;;30.60;45.51;100668.63;1684297;82;21070;-72
2022/06/29 06:49:27;;;;;;;9.27;8.40;;;;;;;30.65;45.26;100666.09;1698935;82;21026;-72
2022/06/29 06:51:53;;;;;;;9.37;8.57;;;;;;;30.73;45.56;100662.16;1699348;82;20882;-72
2022/06/29 06:54:20;;;;;;;9.47;8.67;;;;;;;30.79;45.30;100664.16;1701250;83;21170;-71
2022/06/29 06:56:47;;;;;;;9.80;8.80;;;;;;;30.85;45.86;100661.81;1700671;82;21063;-70
2022/06/29 06:59:13;;;;;;;9.30;8.50;;;;;;;30.90;44.72;100660.05;1697544;82;21140;-72
2022/06/29 07:01:40;;;;;;;9.37;8.57;;;;;;;30.94;44.83;100658.08;1688186;82;21003;-73
2022/06/29 07:04:06;;;;;;;9.70;8.67;;;;;;;31.05;44.33;100664.37;1700692;82;21058;-80
2022/06/29 07:06:34;;;;;;;8.90;8.10;;;;;;;31.13;44.03;100656.09;1699554;82;21246;-71
2022/06/29 07:09:01;;;;;;;8.90;8.10;;;;;;;31.18;44.17;100658.47;1701676;82;22045;-71
2022/06/29 07:11:29;;;;;;;9.30;8.40;;;;;;;31.25;44.44;100659.23;1701054;82;21019;-71
2022/06/29 07:13:56;;;;;;;9.43;8.47;;;;;;;31.31;43.67;100658.25;1698945;82;21101;-72
2022/06/29 07:16:22;;;;;;;8.80;8.10;;;;;;;31.34;43.49;100647.84;1705197;82;21089;-70
2022/06/29 07:18:49;;;;;;;9.60;7.97;;;;;;;31.36;42.85;100646.86;1698725;81;21309;-72
2022/06/29 07:21:16;;;;;;;8.87;7.90;;;;;;;31.38;43.61;100643.09;1700155;82;21055;-71
2022/06/29 07:23:42;;;;;;;9.35;8.45;;;;;;;31.51;44.30;100640.70;1699595;82;21492;-71
2022/06/29 07:26:09;;;;;;;8.98;8.15;;;;;;;31.60;43.50;100640.30;1700100;82;21110;-73
2022/06/29 07:28:36;;;;;;;8.75;7.95;;;;;;;31.61;43.45;100632.20;1698880;82;21006;-71
2022/06/29 07:31:04;;;;;;;8.25;7.55;;;;;;;31.33;44.16;100633.03;1699340;82;21265;-73
2022/06/29 07:33:31;;;;;;;9.65;8.60;;;;;;;31.77;42.86;100631.16;1699276;82;21187;-73
2022/06/29 07:35:58;;;;;;;8.43;7.65;;;;;;;31.89;42.94;100634.90;1699382;82;21057;-72
2022/06/29 07:38:24;;;;;;;8.78;7.97;;;;;;;32.04;42.37;100633.44;1670456;84;21636;-72
2022/06/29 07:40:50;;;;;;;10.20;9.30;;;;;;;32.05;42.04;100629.48;1700801;83;20974;-72
2022/06/29 07:43:17;;;;;;;9.35;8.53;;;;;;;32.09;41.85;100630.27;1699592;83;21219;-72
2022/06/29 07:45:43;;;;;;;9.05;8.05;;;;;;;31.99;42.16;100629.91;1699738;83;21034;-72
2022/06/29 07:48:11;;;;;;;8.95;8.15;;;;;;;32.15;42.84;100630.02;1700543;83;21120;-73
2022/06/29 07:50:38;;;;;;;8.95;8.13;;;;;;;32.19;42.27;100633.57;1700814;83;21206;-72
2022/06/29 07:53:04;;;;;;;9.33;8.28;;;;;;;32.27;42.58;100639.84;1700754;83;21034;-71
2022/06/29 07:55:34;;;;;;;9.95;8.93;;;;;;;32.36;41.69;100632.67;1700714;83;21818;-71
2022/06/29 07:58:00;;;;;;;9.88;8.98;;;;;;;32.38;41.31;100627.55;1700679;83;21033;-71
2022/06/29 08:00:29;;;;;;;9.28;8.38;;;;;;;32.39;41.61;100624.95;1700782;83;21053;-72
2022/06/29 08:02:55;;;;;;;9.20;8.38;;;;;;;32.47;41.84;100622.95;1700867;84;21108;-72
2022/06/29 08:05:24;;;;;;;9.90;8.85;;;;;;;32.62;42.54;100626.42;1700872;83;21033;-72
2022/06/29 08:07:50;;;;;;;8.88;7.97;;;;;;;32.76;41.91;100624.92;1710597;82;21147;-72
2022/06/29 08:10:17;;;;;;;9.60;8.70;;;;;;;32.83;41.29;100630.39;1698557;82;21081;-72
2022/06/29 08:12:44;;;;;;;9.80;8.90;;;;;;;32.91;41.11;100624.22;1700216;82;20988;-72
2022/06/29 08:15:12;;;;;;;8.63;7.90;;;;;;;32.89;39.96;100624.61;1699251;82;21068;-73
2022/06/29 08:17:41;;;;;;;8.68;7.90;;;;;;;32.89;40.65;100619.68;1698197;82;21037;-72
2022/06/29 08:20:09;;;;;;;8.15;7.45;;;;;;;32.94;40.26;100617.88;1699783;82;21487;-72
2022/06/29 08:22:35;;;;;;;8.85;8.05;;;;;;;33.02;40.60;100613.08;1704994;82;21049;-72
2022/06/29 08:25:02;;;;;;;9.13;8.40;;;;;;;33.08;40.95;100603.92;1696758;82;21113;-72
2022/06/29 08:27:30;;;;;;;9.98;9.08;;;;;;;33.11;41.00;100607.86;1698556;82;21081;-73
2022/06/29 08:29:57;;;;;;;9.43;8.63;;;;;;;33.06;41.02;100609.67;1701584;82;21572;-73
2022/06/29 08:32:23;;;;;;;9.45;8.33;;;;;;;32.87;41.24;100613.76;1699201;82;21203;-73
2022/06/29 08:34:50;;;;;;;9.15;8.28;;;;;;;32.78;41.68;100614.25;1700915;82;21082;-73
2022/06/29 08:37:17;;;;;;;9.25;8.45;;;;;;;32.77;41.77;100620.17;1699753;82;21085;-73
2022/06/29 08:39:44;;;;;;;9.15;8.30;;;;;;;32.77;42.40;100618.19;1703045;82;21701;-73
2022/06/29 08:42:10;;;;;;;9.33;8.43;;;;;;;32.87;42.12;100623.44;1699436;82;21648;-73
2022/06/29 08:44:38;;;;;;;8.90;8.10;;;;;;;32.99;41.44;100624.97;1698406;82;22446;-74
2022/06/29 08:47:08;;;;;;;10.30;9.25;;;;;;;33.09;41.12;100626.84;1700867;84;21041;-73
2022/06/29 08:49:36;;;;;;;8.78;8.08;;;;;;;33.11;40.32;100623.08;1700787;83;21050;-73
2022/06/29 08:52:08;;;;;;;9.55;8.75;;;;;;;32.99;41.25;100622.98;1701233;84;21042;-70
2022/06/29 08:54:43;;;;;;;9.38;8.35;;;;;;;33.03;41.09;100622.34;1699930;82;21109;-73
2022/06/29 08:57:09;;;;;;;9.20;8.40;;;;;;;33.03;40.97;100615.42;1679013;82;21826;-72
2022/06/29 08:59:37;;;;;;;9.80;8.90;;;;;;;33.09;41.68;100619.33;1700138;82;21022;-71
2022/06/29 09:02:04;;;;;;;9.50;8.68;;;;;;;33.19;40.39;100621.02;1698625;82;21066;-72
2022/06/29 09:04:33;;;;;;;9.50;8.60;;;;;;;33.25;40.45;100620.16;1699750;82;21517;-72
2022/06/29 09:06:59;;;;;;;8.70;7.90;;;;;;;33.41;39.97;100612.69;1700436;82;21069;-71
2022/06/29 09:09:29;;;;;;;8.05;7.35;;;;;;;33.60;38.92;100620.41;1703414;81;21738;-72
2022/06/29 09:11:55;;;;;;;7.90;7.17;;;;;;;33.67;37.88;100618.16;1698858;82;21074;-72
2022/06/29 09:14:25;;;;;;;8.45;7.65;;;;;;;33.67;35.55;100615.39;1698483;82;21017;-72
2022/06/29 09:17:01;;;;;;;8.43;7.33;;;;;;;33.46;35.74;100615.59;1696412;82;21030;-73
2022/06/29 09:19:31;;;;;;;8.40;7.60;;;;;;;33.20;36.40;100610.91;1699053;82;21030;-72
2022/06/29 09:21:58;;;;;;;8.53;7.73;;;;;;;33.19;36.96;100609.34;1698324;82;21204;-73
2022/06/29 09:24:32;;;;;;;8.25;7.42;;;;;;;33.18;37.17;100609.17;1699776;82;21148;-73
2022/06/29 09:27:04;;;;;;;8.95;8.15;;;;;;;33.25;37.63;100606.33;1699745;82;21070;-73
2022/06/29 09:29:36;;;;;;;8.23;7.42;;;;;;;33.34;38.04;100605.84;1699364;82;21026;-72
2022/06/29 09:32:12;;;;;;;9.05;8.28;;;;;;;33.39;38.25;100602.61;1697317;82;21050;-73
2022/06/29 09:34:43;;;;;;;9.50;8.65;;;;;;;33.35;38.44;100599.10;1699516;82;21491;-72
2022/06/29 09:37:17;;;;;;;8.98;8.13;;;;;;;33.30;39.29;100601.73;1698742;82;21026;-73
2022/06/29 09:39:52;;;;;;;9.23;8.35;;;;;;;33.30;39.46;100596.20;1700186;82;21073;-73
2022/06/29 09:42:22;;;;;;;10.78;8.35;;;;;;;33.40;39.20;100594.52;1698536;82;21584;-72
2022/06/29 09:44:49;;;;;;;9.78;8.88;;;;;;;33.75;39.44;100585.61;1698513;82;21164;-73
2022/06/29 09:47:21;;;;;;;9.80;8.90;;;;;;;34.08;38.56;100588.16;1698898;82;22126;-72
2022/06/29 09:50:02;;;;;;;9.15;8.35;;;;;;;34.09;38.31;100588.34;1698484;82;21066;-72
2022/06/29 09:52:31;;;;;;;9.05;8.18;;;;;;;34.12;38.08;100585.34;1699360;82;21114;-72
2022/06/29 09:54:59;;;;;;;8.43;7.72;;;;;;;34.20;38.62;100576.51;1699469;82;21571;-72
2022/06/29 09:57:30;;;;;;;8.73;7.92;;;;;;;34.20;38.62;100576.51;1697548;82;21159;-71
2022/06/29 10:02:54;;;;;;;9.03;8.30;;;;;;;34.29;37.95;100578.16;1698924;82;21129;-74
2022/06/29 10:05:25;;;;;;;9.10;8.30;;;;;;;34.26;38.08;100583.16;1698426;82;20903;-73
2022/06/29 10:07:55;;;;;;;9.73;8.70;;;;;;;34.33;38.28;100578.70;1697298;82;21124;-73
2022/06/29 10:10:25;;;;;;;9.30;8.43;;;;;;;34.43;37.09;100570.82;1701525;82;21049;-72
2022/06/29 10:16:23;;;;;;;8.40;7.70;;;;;;;34.81;36.25;100578.93;1698082;82;21078;-72
2022/06/29 10:19:21;;;;;;;8.40;7.60;;;;;;;34.81;36.25;100578.93;1701089;83;21019;-72
2022/06/29 10:21:47;;;;;;;8.70;7.83;;;;;;;35.01;35.79;100576.98;1701935;82;21066;-72
2022/06/29 10:24:17;;;;;;;7.80;6.95;;;;;;;35.24;35.13;100578.38;1709250;82;21564;-72
2022/06/29 10:26:45;;;;;;;8.20;7.37;;;;;;;35.43;34.55;100577.41;1688367;82;21537;-75
2022/06/29 10:29:24;;;;;;;8.60;7.12;;;;;;;35.56;33.46;100571.41;1697449;82;21467;-74
2022/06/29 10:31:57;;;;;;;8.65;7.95;;;;;;;35.61;34.36;100575.09;1699284;82;21038;-71
2022/06/29 10:34:49;;;;;;;7.45;6.80;;;;;;;35.66;33.16;100569.02;1699052;82;22217;-74
2022/06/29 10:37:08;;;;;;;7.97;7.20;;;;;;;35.68;33.04;100569.37;1694605;82;21026;-72
2022/06/29 10:39:51;;;;;;;8.00;7.20;;;;;;;35.76;33.31;100562.27;1700063;82;21367;-73
2022/06/29 10:45:19;;;;;;;7.87;7.17;;;;;;;36.04;31.98;100559.51;1700273;82;21553;-72
2022/06/29 10:48:05;;;;;;;7.50;6.90;;;;;;;36.11;32.28;100552.39;1699789;82;21106;-72
2022/06/29 10:50:34;;;;;;;8.20;7.40;;;;;;;36.20;32.26;100540.64;1699445;82;21093;-72
2022/06/29 10:53:11;;;;;;;7.85;7.15;;;;;;;36.31;31.57;100535.63;1699371;82;21710;-72
2022/06/29 10:55:42;;;;;;;7.22;6.55;;;;;;;36.38;30.96;100522.92;1697200;82;20903;-73
2022/06/29 10:58:09;;;;;;;7.00;6.40;;;;;;;36.42;30.47;100521.44;1700114;82;21117;-73
2022/06/29 11:00:47;;;;;;;7.10;6.42;;;;;;;36.25;29.94;100525.63;1698411;82;21082;-73
2022/06/29 11:03:29;;;;;;;7.97;6.53;;;;;;;36.09;30.75;100525.61;1688425;82;21116;-73
2022/06/29 11:17:39;;;;;;;7.45;6.85;;;;;;;36.57;29.25;100513.72;1672595;82;21116;-73
2022/06/29 11:19:38;;;;;;;6.97;6.28;;;;;;;36.59;28.86;100508.52;1717997;82;21649;-73
2022/06/29 11:22:15;;;;;;;7.03;6.37;;;;;;;36.65;29.28;100499.01;1702289;83;21101;-73
2022/06/29 11:24:59;;;;;;;7.90;7.22;;;;;;;36.73;29.33;100482.92;1716618;81;21010;-74
2022/06/29 11:27:34;;;;;;;6.75;6.15;;;;;;;36.73;29.22;100482.30;1692897;84;21019;-72
2022/06/29 11:30:11;;;;;;;7.10;6.50;;;;;;;36.76;28.74;100491.17;1698789;81;21066;-72
2022/06/29 11:32:47;;;;;;;8.03;7.22;;;;;;;36.76;27.91;100491.17;1698139;82;21466;-71
2022/06/29 11:35:21;;;;;;;7.10;6.40;;;;;;;36.59;28.37;100488.23;1700818;82;21054;-72
2022/06/29 11:37:53;;;;;;;6.53;6.00;;;;;;;36.37;28.83;100493.56;1698624;82;21069;-72
2022/06/29 11:40:34;;;;;;;6.42;5.83;;;;;;;36.33;28.70;100488.67;1682664;84;20977;-72
2022/06/29 11:43:07;;;;;;;;;;;;;;;36.44;27.75;100478.69;1685482;84;21086;-74
2022/06/29 11:45:45;;;;;;;5.80;5.30;;;;;;;36.62;27.76;100476.23;1709450;82;21223;-73
2022/06/29 11:48:20;;;;;;;6.60;5.20;;;;;;;36.73;27.34;100471.17;1711400;83;21641;-74
2022/06/29 11:50:58;;;;;;;5.53;5.03;;;;;;;36.40;28.35;100466.27;1702058;82;21053;-74